sensor_id;sensor_type;location;lat;lon;timestamp;temperature;humidity
68450;SHT30;67758;39.572;2.652;2023-08-30T00:00:45;22.32;78.31
68450;SHT30;67758;39.572;2.652;2023-08-30T00:03:11;22.27;78.57
68450;SHT30;67758;39.572;2.652;2023-08-30T00:05:41;22.23;78.49
68450;SHT30;67758;39.572;2.652;2023-08-30T00:08:07;22.17;78.56
68450;SHT30;67758;39.572;2.652;2023-08-30T00:10:33;22.14;78.73
68450;SHT30;67758;39.572;2.652;2023-08-30T00:12:58;22.16;78.81
68450;SHT30;67758;39.572;2.652;2023-08-30T00:15:24;22.09;79.00
68450;SHT30;67758;39.572;2.652;2023-08-30T00:17:50;22.09;79.12
68450;SHT30;67758;39.572;2.652;2023-08-30T00:20:19;22.10;79.17
68450;SHT30;67758;39.572;2.652;2023-08-30T00:22:45;22.12;79.23
68450;SHT30;67758;39.572;2.652;2023-08-30T00:25:10;22.12;79.30
68450;SHT30;67758;39.572;2.652;2023-08-30T00:27:36;22.12;79.27
68450;SHT30;67758;39.572;2.652;2023-08-30T00:30:02;22.12;79.23
68450;SHT30;67758;39.572;2.652;2023-08-30T00:32:28;22.10;79.40
68450;SHT30;67758;39.572;2.652;2023-08-30T00:34:53;22.09;79.46
68450;SHT30;67758;39.572;2.652;2023-08-30T00:37:19;22.04;79.61
68450;SHT30;67758;39.572;2.652;2023-08-30T00:39:44;22.02;79.75
68450;SHT30;67758;39.572;2.652;2023-08-30T00:42:10;22.00;79.87
68450;SHT30;67758;39.572;2.652;2023-08-30T00:44:36;21.97;79.98
68450;SHT30;67758;39.572;2.652;2023-08-30T00:47:02;22.00;79.99
68450;SHT30;67758;39.572;2.652;2023-08-30T00:49:31;22.02;79.99
68450;SHT30;67758;39.572;2.652;2023-08-30T00:51:59;22.00;79.94
68450;SHT30;67758;39.572;2.652;2023-08-30T00:54:26;22.03;79.92
68450;SHT30;67758;39.572;2.652;2023-08-30T00:56:53;22.03;79.87
68450;SHT30;67758;39.572;2.652;2023-08-30T00:59:19;22.02;79.80
68450;SHT30;67758;39.572;2.652;2023-08-30T01:01:45;22.00;79.89
68450;SHT30;67758;39.572;2.652;2023-08-30T01:04:11;22.04;79.73
68450;SHT30;67758;39.572;2.652;2023-08-30T01:06:37;22.06;79.61
68450;SHT30;67758;39.572;2.652;2023-08-30T01:09:03;22.09;79.59
68450;SHT30;67758;39.572;2.652;2023-08-30T01:11:36;22.09;79.53
68450;SHT30;67758;39.572;2.652;2023-08-30T01:14:08;22.10;79.44
68450;SHT30;67758;39.572;2.652;2023-08-30T01:16:37;22.10;79.49
68450;SHT30;67758;39.572;2.652;2023-08-30T01:27:41;21.96;79.55
68450;SHT30;67758;39.572;2.652;2023-08-30T01:30:09;21.92;79.76
68450;SHT30;67758;39.572;2.652;2023-08-30T01:32:36;21.90;79.83
68450;SHT30;67758;39.572;2.652;2023-08-30T01:35:04;21.85;79.92
68450;SHT30;67758;39.572;2.652;2023-08-30T01:37:30;21.83;80.07
68450;SHT30;67758;39.572;2.652;2023-08-30T01:39:57;21.85;79.99
68450;SHT30;67758;39.572;2.652;2023-08-30T01:42:25;21.79;80.22
68450;SHT30;67758;39.572;2.652;2023-08-30T01:44:56;21.81;80.28
68450;SHT30;67758;39.572;2.652;2023-08-30T01:47:25;21.79;80.12
68450;SHT30;67758;39.572;2.652;2023-08-30T01:49:55;21.79;80.29
68450;SHT30;67758;39.572;2.652;2023-08-30T01:52:23;21.79;80.15
68450;SHT30;67758;39.572;2.652;2023-08-30T01:54:51;21.81;80.15
68450;SHT30;67758;39.572;2.652;2023-08-30T01:57:16;21.78;80.21
68450;SHT30;67758;39.572;2.652;2023-08-30T01:59:42;21.82;80.15
68450;SHT30;67758;39.572;2.652;2023-08-30T02:02:08;21.81;80.08
68450;SHT30;67758;39.572;2.652;2023-08-30T02:04:33;21.82;80.18
68450;SHT30;67758;39.572;2.652;2023-08-30T02:09:28;21.78;80.23
68450;SHT30;67758;39.572;2.652;2023-08-30T02:11:56;21.67;79.76
68450;SHT30;67758;39.572;2.652;2023-08-30T02:14:25;21.69;79.79
68450;SHT30;67758;39.572;2.652;2023-08-30T02:16:54;21.62;79.61
68450;SHT30;67758;39.572;2.652;2023-08-30T02:19:20;21.55;79.86
68450;SHT30;67758;39.572;2.652;2023-08-30T02:21:46;21.37;80.50
68450;SHT30;67758;39.572;2.652;2023-08-30T02:24:13;21.22;80.92
68450;SHT30;67758;39.572;2.652;2023-08-30T02:26:39;21.15;81.19
68450;SHT30;67758;39.572;2.652;2023-08-30T02:29:05;21.12;81.32
68450;SHT30;67758;39.572;2.652;2023-08-30T02:31:30;21.01;81.47
68450;SHT30;67758;39.572;2.652;2023-08-30T02:33:56;21.04;81.52
68450;SHT30;67758;39.572;2.652;2023-08-30T02:36:22;21.00;81.38
68450;SHT30;67758;39.572;2.652;2023-08-30T02:38:48;21.10;81.44
68450;SHT30;67758;39.572;2.652;2023-08-30T02:41:13;20.95;81.09
68450;SHT30;67758;39.572;2.652;2023-08-30T02:43:39;20.88;81.33
68450;SHT30;67758;39.572;2.652;2023-08-30T02:46:04;20.87;81.41
68450;SHT30;67758;39.572;2.652;2023-08-30T02:48:31;20.84;81.57
68450;SHT30;67758;39.572;2.652;2023-08-30T02:50:57;20.83;81.61
68450;SHT30;67758;39.572;2.652;2023-08-30T02:53:23;20.81;81.52
68450;SHT30;67758;39.572;2.652;2023-08-30T02:55:49;20.85;81.23
68450;SHT30;67758;39.572;2.652;2023-08-30T02:58:14;20.83;81.13
68450;SHT30;67758;39.572;2.652;2023-08-30T03:00:40;21.02;80.74
68450;SHT30;67758;39.572;2.652;2023-08-30T03:03:06;21.17;79.75
68450;SHT30;67758;39.572;2.652;2023-08-30T03:05:31;21.24;79.30
68450;SHT30;67758;39.572;2.652;2023-08-30T03:07:57;21.49;78.68
68450;SHT30;67758;39.572;2.652;2023-08-30T03:10:23;21.37;78.46
68450;SHT30;67758;39.572;2.652;2023-08-30T03:12:48;21.38;79.26
68450;SHT30;67758;39.572;2.652;2023-08-30T03:15:14;21.65;78.25
68450;SHT30;67758;39.572;2.652;2023-08-30T03:17:40;21.92;77.33
68450;SHT30;67758;39.572;2.652;2023-08-30T03:20:06;21.38;78.41
68450;SHT30;67758;39.572;2.652;2023-08-30T03:22:32;21.15;79.35
68450;SHT30;67758;39.572;2.652;2023-08-30T03:24:58;20.84;79.80
68450;SHT30;67758;39.572;2.652;2023-08-30T03:27:24;20.73;80.28
68450;SHT30;67758;39.572;2.652;2023-08-30T03:29:50;20.64;80.43
68450;SHT30;67758;39.572;2.652;2023-08-30T03:32:17;20.61;80.71
68450;SHT30;67758;39.572;2.652;2023-08-30T03:34:47;20.51;80.62
68450;SHT30;67758;39.572;2.652;2023-08-30T03:37:14;20.49;80.60
68450;SHT30;67758;39.572;2.652;2023-08-30T03:39:39;20.43;80.72
68450;SHT30;67758;39.572;2.652;2023-08-30T03:42:05;20.54;80.44
68450;SHT30;67758;39.572;2.652;2023-08-30T03:44:31;20.49;80.28
68450;SHT30;67758;39.572;2.652;2023-08-30T03:46:56;20.37;80.28
68450;SHT30;67758;39.572;2.652;2023-08-30T03:49:22;20.36;80.38
68450;SHT30;67758;39.572;2.652;2023-08-30T03:51:48;20.30;80.07
68450;SHT30;67758;39.572;2.652;2023-08-30T03:54:14;20.25;79.58
68450;SHT30;67758;39.572;2.652;2023-08-30T03:56:45;20.26;79.28
68450;SHT30;67758;39.572;2.652;2023-08-30T03:59:11;20.28;79.46
68450;SHT30;67758;39.572;2.652;2023-08-30T04:01:37;20.29;79.60
68450;SHT30;67758;39.572;2.652;2023-08-30T04:04:03;20.26;79.78
68450;SHT30;67758;39.572;2.652;2023-08-30T04:06:30;20.30;79.87
68450;SHT30;67758;39.572;2.652;2023-08-30T04:08:55;20.29;79.80
68450;SHT30;67758;39.572;2.652;2023-08-30T04:11:21;20.30;79.84
68450;SHT30;67758;39.572;2.652;2023-08-30T04:13:46;20.32;79.90
68450;SHT30;67758;39.572;2.652;2023-08-30T04:16:12;20.34;79.99
68450;SHT30;67758;39.572;2.652;2023-08-30T04:18:38;20.39;80.07
68450;SHT30;67758;39.572;2.652;2023-08-30T04:21:03;20.40;80.09
68450;SHT30;67758;39.572;2.652;2023-08-30T04:23:31;20.42;80.34
68450;SHT30;67758;39.572;2.652;2023-08-30T04:25:57;20.42;80.89
68450;SHT30;67758;39.572;2.652;2023-08-30T04:28:22;20.44;81.23
68450;SHT30;67758;39.572;2.652;2023-08-30T04:30:48;20.46;81.47
68450;SHT30;67758;39.572;2.652;2023-08-30T04:33:14;20.46;81.59
68450;SHT30;67758;39.572;2.652;2023-08-30T04:35:39;20.51;81.45
68450;SHT30;67758;39.572;2.652;2023-08-30T04:38:05;20.51;81.52
68450;SHT30;67758;39.572;2.652;2023-08-30T04:40:31;20.49;81.54
68450;SHT30;67758;39.572;2.652;2023-08-30T04:42:58;20.56;81.33
68450;SHT30;67758;39.572;2.652;2023-08-30T04:45:24;20.49;81.36
68450;SHT30;67758;39.572;2.652;2023-08-30T04:47:49;20.54;81.41
68450;SHT30;67758;39.572;2.652;2023-08-30T04:50:15;20.49;81.22
68450;SHT30;67758;39.572;2.652;2023-08-30T04:52:42;20.56;80.99
68450;SHT30;67758;39.572;2.652;2023-08-30T04:55:08;20.54;80.76
68450;SHT30;67758;39.572;2.652;2023-08-30T04:57:34;20.54;80.82
68450;SHT30;67758;39.572;2.652;2023-08-30T04:59:59;20.63;80.28
68450;SHT30;67758;39.572;2.652;2023-08-30T05:02:29;20.64;80.47
68450;SHT30;67758;39.572;2.652;2023-08-30T05:04:55;20.73;80.60
68450;SHT30;67758;39.572;2.652;2023-08-30T05:07:20;21.04;80.00
68450;SHT30;67758;39.572;2.652;2023-08-30T05:09:46;21.15;79.91
68450;SHT30;67758;39.572;2.652;2023-08-30T05:12:12;21.32;79.39
68450;SHT30;67758;39.572;2.652;2023-08-30T05:14:37;21.17;79.95
68450;SHT30;67758;39.572;2.652;2023-08-30T05:17:03;21.05;80.43
68450;SHT30;67758;39.572;2.652;2023-08-30T05:19:29;20.85;81.27
68450;SHT30;67758;39.572;2.652;2023-08-30T05:21:55;20.69;82.84
68450;SHT30;67758;39.572;2.652;2023-08-30T05:24:21;20.66;82.74
68450;SHT30;67758;39.572;2.652;2023-08-30T05:26:47;20.63;82.99
68450;SHT30;67758;39.572;2.652;2023-08-30T05:29:14;20.73;82.41
68450;SHT30;67758;39.572;2.652;2023-08-30T05:31:41;20.90;81.66
68450;SHT30;67758;39.572;2.652;2023-08-30T05:34:07;20.95;81.66
68450;SHT30;67758;39.572;2.652;2023-08-30T05:36:32;20.90;81.30
68450;SHT30;67758;39.572;2.652;2023-08-30T05:38:58;20.79;81.22
68450;SHT30;67758;39.572;2.652;2023-08-30T05:41:24;20.80;80.88
68450;SHT30;67758;39.572;2.652;2023-08-30T05:43:51;20.94;80.77
68450;SHT30;67758;39.572;2.652;2023-08-30T05:46:17;21.14;80.29
68450;SHT30;67758;39.572;2.652;2023-08-30T05:48:42;21.10;78.89
68450;SHT30;67758;39.572;2.652;2023-08-30T05:51:08;21.00;79.12
68450;SHT30;67758;39.572;2.652;2023-08-30T05:53:34;20.90;79.23
68450;SHT30;67758;39.572;2.652;2023-08-30T05:56:00;20.91;79.43
68450;SHT30;67758;39.572;2.652;2023-08-30T05:58:25;21.04;79.04
68450;SHT30;67758;39.572;2.652;2023-08-30T06:00:51;21.05;78.73
68450;SHT30;67758;39.572;2.652;2023-08-30T06:03:16;21.07;79.46
68450;SHT30;67758;39.572;2.652;2023-08-30T06:05:42;21.11;79.68
68450;SHT30;67758;39.572;2.652;2023-08-30T06:08:10;21.17;79.72
68450;SHT30;67758;39.572;2.652;2023-08-30T06:10:37;21.22;79.53
68450;SHT30;67758;39.572;2.652;2023-08-30T06:13:04;21.31;79.47
68450;SHT30;67758;39.572;2.652;2023-08-30T06:15:29;21.44;79.04
68450;SHT30;67758;39.572;2.652;2023-08-30T06:17:55;21.52;78.61
68450;SHT30;67758;39.572;2.652;2023-08-30T06:20:21;21.59;78.60
68450;SHT30;67758;39.572;2.652;2023-08-30T06:22:46;21.69;78.89
68450;SHT30;67758;39.572;2.652;2023-08-30T06:25:12;21.65;78.79
68450;SHT30;67758;39.572;2.652;2023-08-30T06:27:41;21.62;78.84
68450;SHT30;67758;39.572;2.652;2023-08-30T06:30:09;21.76;78.93
68450;SHT30;67758;39.572;2.652;2023-08-30T06:32:35;21.85;78.52
68450;SHT30;67758;39.572;2.652;2023-08-30T06:35:10;22.04;78.23
68450;SHT30;67758;39.572;2.652;2023-08-30T06:37:36;22.18;77.86
68450;SHT30;67758;39.572;2.652;2023-08-30T06:40:02;22.21;77.83
68450;SHT30;67758;39.572;2.652;2023-08-30T06:42:29;22.09;78.38
68450;SHT30;67758;39.572;2.652;2023-08-30T06:44:54;21.96;78.38
68450;SHT30;67758;39.572;2.652;2023-08-30T06:47:20;21.93;78.98
68450;SHT30;67758;39.572;2.652;2023-08-30T06:49:46;21.96;78.77
68450;SHT30;67758;39.572;2.652;2023-08-30T06:52:11;22.02;78.87
68450;SHT30;67758;39.572;2.652;2023-08-30T06:54:37;22.06;78.90
68450;SHT30;67758;39.572;2.652;2023-08-30T06:57:03;22.10;78.63
68450;SHT30;67758;39.572;2.652;2023-08-30T06:59:29;22.06;78.56
68450;SHT30;67758;39.572;2.652;2023-08-30T07:01:55;22.14;78.54
68450;SHT30;67758;39.572;2.652;2023-08-30T07:04:21;22.23;78.43
68450;SHT30;67758;39.572;2.652;2023-08-30T07:06:46;22.37;78.20
68450;SHT30;67758;39.572;2.652;2023-08-30T07:09:12;22.61;77.53
68450;SHT30;67758;39.572;2.652;2023-08-30T07:11:38;22.79;76.91
68450;SHT30;67758;39.572;2.652;2023-08-30T07:14:04;22.72;77.11
68450;SHT30;67758;39.572;2.652;2023-08-30T07:16:30;22.77;77.32
68450;SHT30;67758;39.572;2.652;2023-08-30T07:18:57;22.71;77.45
68450;SHT30;67758;39.572;2.652;2023-08-30T07:21:23;22.71;77.40
68450;SHT30;67758;39.572;2.652;2023-08-30T07:23:49;22.74;77.41
68450;SHT30;67758;39.572;2.652;2023-08-30T07:26:15;22.74;77.45
68450;SHT30;67758;39.572;2.652;2023-08-30T07:28:40;22.75;77.35
68450;SHT30;67758;39.572;2.652;2023-08-30T07:31:06;22.83;77.25
68450;SHT30;67758;39.572;2.652;2023-08-30T07:33:31;22.83;77.37
68450;SHT30;67758;39.572;2.652;2023-08-30T07:35:58;22.81;77.33
68450;SHT30;67758;39.572;2.652;2023-08-30T07:38:24;22.77;77.46
68450;SHT30;67758;39.572;2.652;2023-08-30T07:40:50;22.79;77.43
68450;SHT30;67758;39.572;2.652;2023-08-30T07:43:17;22.77;77.45
68450;SHT30;67758;39.572;2.652;2023-08-30T07:45:42;22.84;77.66
68450;SHT30;67758;39.572;2.652;2023-08-30T07:48:08;22.87;77.47
68450;SHT30;67758;39.572;2.652;2023-08-30T07:50:33;22.91;77.24
68450;SHT30;67758;39.572;2.652;2023-08-30T07:52:59;23.01;76.97
68450;SHT30;67758;39.572;2.652;2023-08-30T07:55:25;22.99;76.79
68450;SHT30;67758;39.572;2.652;2023-08-30T07:57:50;23.35;76.26
68450;SHT30;67758;39.572;2.652;2023-08-30T08:00:16;23.46;75.76
68450;SHT30;67758;39.572;2.652;2023-08-30T08:02:42;23.53;75.64
68450;SHT30;67758;39.572;2.652;2023-08-30T08:05:08;23.65;75.12
68450;SHT30;67758;39.572;2.652;2023-08-30T08:07:38;23.62;75.22
68450;SHT30;67758;39.572;2.652;2023-08-30T08:10:04;23.59;75.28
68450;SHT30;67758;39.572;2.652;2023-08-30T08:12:30;23.50;75.30
68450;SHT30;67758;39.572;2.652;2023-08-30T08:14:56;23.63;75.38
68450;SHT30;67758;39.572;2.652;2023-08-30T08:17:23;23.65;74.96
68450;SHT30;67758;39.572;2.652;2023-08-30T08:19:48;23.65;75.08
68450;SHT30;67758;39.572;2.652;2023-08-30T08:22:14;23.70;75.07
68450;SHT30;67758;39.572;2.652;2023-08-30T08:24:39;23.84;74.41
68450;SHT30;67758;39.572;2.652;2023-08-30T08:27:05;23.92;74.34
68450;SHT30;67758;39.572;2.652;2023-08-30T08:29:31;23.98;74.07
68450;SHT30;67758;39.572;2.652;2023-08-30T08:31:57;24.10;73.74
68450;SHT30;67758;39.572;2.652;2023-08-30T08:34:22;24.27;72.72
68450;SHT30;67758;39.572;2.652;2023-08-30T08:36:48;24.34;72.41
68450;SHT30;67758;39.572;2.652;2023-08-30T08:39:14;24.47;72.44
68450;SHT30;67758;39.572;2.652;2023-08-30T08:41:41;24.49;72.03
68450;SHT30;67758;39.572;2.652;2023-08-30T08:44:08;24.68;71.81
68450;SHT30;67758;39.572;2.652;2023-08-30T08:46:38;24.86;71.28
68450;SHT30;67758;39.572;2.652;2023-08-30T08:49:15;25.05;70.39
68450;SHT30;67758;39.572;2.652;2023-08-30T08:51:41;25.16;69.90
68450;SHT30;67758;39.572;2.652;2023-08-30T08:54:11;25.26;69.66
68450;SHT30;67758;39.572;2.652;2023-08-30T08:56:38;25.23;69.47
68450;SHT30;67758;39.572;2.652;2023-08-30T08:59:04;25.29;69.37
68450;SHT30;67758;39.572;2.652;2023-08-30T09:01:36;25.36;69.34
68450;SHT30;67758;39.572;2.652;2023-08-30T09:04:09;25.42;67.53
68450;SHT30;67758;39.572;2.652;2023-08-30T09:06:35;25.49;67.63
68450;SHT30;67758;39.572;2.652;2023-08-30T09:09:03;25.53;67.57
68450;SHT30;67758;39.572;2.652;2023-08-30T09:11:33;25.64;66.33
68450;SHT30;67758;39.572;2.652;2023-08-30T09:13:59;25.84;65.72
68450;SHT30;67758;39.572;2.652;2023-08-30T09:16:25;25.98;64.33
68450;SHT30;67758;39.572;2.652;2023-08-30T09:18:58;26.08;63.74
68450;SHT30;67758;39.572;2.652;2023-08-30T09:21:24;26.17;62.78
68450;SHT30;67758;39.572;2.652;2023-08-30T09:23:57;26.31;62.58
68450;SHT30;67758;39.572;2.652;2023-08-30T09:26:23;26.24;63.56
68450;SHT30;67758;39.572;2.652;2023-08-30T09:28:50;26.18;64.75
68450;SHT30;67758;39.572;2.652;2023-08-30T09:31:18;26.35;63.85
68450;SHT30;67758;39.572;2.652;2023-08-30T09:33:47;26.48;63.45
68450;SHT30;67758;39.572;2.652;2023-08-30T09:36:15;26.55;65.11
68450;SHT30;67758;39.572;2.652;2023-08-30T09:38:47;26.63;64.12
68450;SHT30;67758;39.572;2.652;2023-08-30T09:41:13;26.41;65.30
68450;SHT30;67758;39.572;2.652;2023-08-30T09:43:42;26.42;64.57
68450;SHT30;67758;39.572;2.652;2023-08-30T09:46:09;26.22;64.08
68450;SHT30;67758;39.572;2.652;2023-08-30T09:48:34;26.25;63.98
68450;SHT30;67758;39.572;2.652;2023-08-30T09:51:07;26.32;65.10
68450;SHT30;67758;39.572;2.652;2023-08-30T09:53:37;26.36;66.39
68450;SHT30;67758;39.572;2.652;2023-08-30T09:56:06;26.29;65.58
68450;SHT30;67758;39.572;2.652;2023-08-30T09:58:33;26.34;66.07
68450;SHT30;67758;39.572;2.652;2023-08-30T10:00:59;26.44;66.54
68450;SHT30;67758;39.572;2.652;2023-08-30T10:03:30;26.60;65.30
68450;SHT30;67758;39.572;2.652;2023-08-30T10:05:56;26.80;64.62
68450;SHT30;67758;39.572;2.652;2023-08-30T10:08:25;26.76;63.84
68450;SHT30;67758;39.572;2.652;2023-08-30T10:10:55;26.82;63.65
68450;SHT30;67758;39.572;2.652;2023-08-30T10:13:23;26.93;63.62
68450;SHT30;67758;39.572;2.652;2023-08-30T10:15:50;26.90;63.71
68450;SHT30;67758;39.572;2.652;2023-08-30T10:18:19;27.13;63.55
68450;SHT30;67758;39.572;2.652;2023-08-30T10:20:46;27.06;63.69
68450;SHT30;67758;39.572;2.652;2023-08-30T10:23:14;27.34;64.01
68450;SHT30;67758;39.572;2.652;2023-08-30T10:25:41;27.59;63.46
68450;SHT30;67758;39.572;2.652;2023-08-30T10:28:09;27.80;63.09
68450;SHT30;67758;39.572;2.652;2023-08-30T10:30:36;27.50;63.36
68450;SHT30;67758;39.572;2.652;2023-08-30T10:33:02;27.46;62.39
68450;SHT30;67758;39.572;2.652;2023-08-30T10:35:28;27.74;62.45
68450;SHT30;67758;39.572;2.652;2023-08-30T10:37:56;27.72;62.01
68450;SHT30;67758;39.572;2.652;2023-08-30T10:40:21;27.46;62.66
68450;SHT30;67758;39.572;2.652;2023-08-30T10:42:58;27.24;62.87
68450;SHT30;67758;39.572;2.652;2023-08-30T10:45:24;27.43;62.92
68450;SHT30;67758;39.572;2.652;2023-08-30T10:47:54;27.36;63.33
68450;SHT30;67758;39.572;2.652;2023-08-30T10:50:28;28.97;60.14
68450;SHT30;67758;39.572;2.652;2023-08-30T10:52:55;29.17;59.58
68450;SHT30;67758;39.572;2.652;2023-08-30T10:55:22;29.21;59.47
68450;SHT30;67758;39.572;2.652;2023-08-30T10:58:01;29.52;59.53
68450;SHT30;67758;39.572;2.652;2023-08-30T11:00:28;29.92;58.63
68450;SHT30;67758;39.572;2.652;2023-08-30T11:02:55;30.71;55.98
68450;SHT30;67758;39.572;2.652;2023-08-30T11:05:22;31.14;54.71
68450;SHT30;67758;39.572;2.652;2023-08-30T11:07:49;31.46;53.93
68450;SHT30;67758;39.572;2.652;2023-08-30T11:10:16;31.32;54.53
68450;SHT30;67758;39.572;2.652;2023-08-30T11:12:43;31.31;53.20
68450;SHT30;67758;39.572;2.652;2023-08-30T11:15:10;30.34;55.68
68450;SHT30;67758;39.572;2.652;2023-08-30T11:17:36;29.30;57.54
68450;SHT30;67758;39.572;2.652;2023-08-30T11:20:10;30.12;56.86
68450;SHT30;67758;39.572;2.652;2023-08-30T11:22:43;29.83;55.25
68450;SHT30;67758;39.572;2.652;2023-08-30T11:25:09;30.13;55.24
68450;SHT30;67758;39.572;2.652;2023-08-30T11:27:36;29.52;56.59
68450;SHT30;67758;39.572;2.652;2023-08-30T11:30:04;29.61;56.89
68450;SHT30;67758;39.572;2.652;2023-08-30T11:32:36;29.61;56.69
68450;SHT30;67758;39.572;2.652;2023-08-30T11:35:03;31.36;53.08
68450;SHT30;67758;39.572;2.652;2023-08-30T11:37:29;29.37;53.24
68450;SHT30;67758;39.572;2.652;2023-08-30T11:39:55;28.42;54.18
68450;SHT30;67758;39.572;2.652;2023-08-30T11:42:21;27.36;56.45
68450;SHT30;67758;39.572;2.652;2023-08-30T11:44:47;27.65;56.50
68450;SHT30;67758;39.572;2.652;2023-08-30T11:47:18;28.39;53.93
68450;SHT30;67758;39.572;2.652;2023-08-30T11:49:45;27.51;56.27
68450;SHT30;67758;39.572;2.652;2023-08-30T11:52:11;27.33;57.15
68450;SHT30;67758;39.572;2.652;2023-08-30T11:54:37;27.30;57.06
68450;SHT30;67758;39.572;2.652;2023-08-30T11:57:03;27.20;57.09
68450;SHT30;67758;39.572;2.652;2023-08-30T11:59:34;27.13;57.42
68450;SHT30;67758;39.572;2.652;2023-08-30T12:02:01;26.90;57.76
68450;SHT30;67758;39.572;2.652;2023-08-30T12:04:26;26.85;58.31
68450;SHT30;67758;39.572;2.652;2023-08-30T12:06:52;27.16;56.49
68450;SHT30;67758;39.572;2.652;2023-08-30T12:09:21;28.20;55.53
68450;SHT30;67758;39.572;2.652;2023-08-30T12:11:49;27.98;56.98
68450;SHT30;67758;39.572;2.652;2023-08-30T12:14:15;27.33;57.46
68450;SHT30;67758;39.572;2.652;2023-08-30T12:16:42;27.50;56.45
68450;SHT30;67758;39.572;2.652;2023-08-30T12:19:11;28.42;54.84
68450;SHT30;67758;39.572;2.652;2023-08-30T12:21:42;29.68;52.73
68450;SHT30;67758;39.572;2.652;2023-08-30T12:24:08;30.87;51.04
68450;SHT30;67758;39.572;2.652;2023-08-30T12:26:34;31.93;49.44
68450;SHT30;67758;39.572;2.652;2023-08-30T12:29:05;31.15;48.96
68450;SHT30;67758;39.572;2.652;2023-08-30T12:31:32;30.68;48.95
68450;SHT30;67758;39.572;2.652;2023-08-30T12:33:58;32.12;47.46
68450;SHT30;67758;39.572;2.652;2023-08-30T12:36:26;31.43;47.44
68450;SHT30;67758;39.572;2.652;2023-08-30T12:38:55;29.76;48.04
68450;SHT30;67758;39.572;2.652;2023-08-30T12:41:21;31.15;44.77
68450;SHT30;67758;39.572;2.652;2023-08-30T12:43:49;31.69;43.18
68450;SHT30;67758;39.572;2.652;2023-08-30T12:46:15;32.55;41.07
68450;SHT30;67758;39.572;2.652;2023-08-30T12:48:41;31.87;41.99
68450;SHT30;67758;39.572;2.652;2023-08-30T12:51:06;30.75;44.51
68450;SHT30;67758;39.572;2.652;2023-08-30T12:53:32;29.34;47.29
68450;SHT30;67758;39.572;2.652;2023-08-30T12:55:57;28.98;48.26
68450;SHT30;67758;39.572;2.652;2023-08-30T12:58:23;29.86;46.12
68450;SHT30;67758;39.572;2.652;2023-08-30T13:00:49;30.74;45.03
68450;SHT30;67758;39.572;2.652;2023-08-30T13:03:15;31.34;43.67
68450;SHT30;67758;39.572;2.652;2023-08-30T13:05:41;30.51;45.39
68450;SHT30;67758;39.572;2.652;2023-08-30T13:08:06;29.92;47.12
68450;SHT30;67758;39.572;2.652;2023-08-30T13:10:32;29.15;48.85
68450;SHT30;67758;39.572;2.652;2023-08-30T13:12:58;29.08;48.23
68450;SHT30;67758;39.572;2.652;2023-08-30T13:15:23;29.90;46.52
68450;SHT30;67758;39.572;2.652;2023-08-30T13:17:49;31.53;43.27
68450;SHT30;67758;39.572;2.652;2023-08-30T13:20:15;32.21;43.35
68450;SHT30;67758;39.572;2.652;2023-08-30T13:22:41;32.17;44.07
68450;SHT30;67758;39.572;2.652;2023-08-30T13:25:07;31.93;44.02
68450;SHT30;67758;39.572;2.652;2023-08-30T13:27:33;32.88;42.32
68450;SHT30;67758;39.572;2.652;2023-08-30T13:29:58;31.98;42.04
68450;SHT30;67758;39.572;2.652;2023-08-30T13:32:24;32.47;41.26
68450;SHT30;67758;39.572;2.652;2023-08-30T13:34:50;33.59;40.53
68450;SHT30;67758;39.572;2.652;2023-08-30T13:37:16;33.21;41.76
68450;SHT30;67758;39.572;2.652;2023-08-30T13:39:43;32.44;42.66
68450;SHT30;67758;39.572;2.652;2023-08-30T13:42:08;31.59;44.21
68450;SHT30;67758;39.572;2.652;2023-08-30T13:44:35;30.85;45.96
68450;SHT30;67758;39.572;2.652;2023-08-30T13:47:05;31.10;45.95
68450;SHT30;67758;39.572;2.652;2023-08-30T13:49:31;30.74;46.59
68450;SHT30;67758;39.572;2.652;2023-08-30T13:51:57;30.40;47.20
68450;SHT30;67758;39.572;2.652;2023-08-30T13:54:23;30.36;47.57
68450;SHT30;67758;39.572;2.652;2023-08-30T13:56:52;30.54;47.29
68450;SHT30;67758;39.572;2.652;2023-08-30T13:59:18;30.61;46.11
68450;SHT30;67758;39.572;2.652;2023-08-30T14:01:46;30.37;47.18
68450;SHT30;67758;39.572;2.652;2023-08-30T14:04:12;30.50;47.21
68450;SHT30;67758;39.572;2.652;2023-08-30T14:06:37;30.57;46.94
68450;SHT30;67758;39.572;2.652;2023-08-30T14:09:03;30.30;46.55
68450;SHT30;67758;39.572;2.652;2023-08-30T14:11:34;30.41;46.46
68450;SHT30;67758;39.572;2.652;2023-08-30T14:14:02;30.81;46.42
68450;SHT30;67758;39.572;2.652;2023-08-30T14:16:27;30.51;47.35
68450;SHT30;67758;39.572;2.652;2023-08-30T14:18:53;30.75;43.92
68450;SHT30;67758;39.572;2.652;2023-08-30T14:21:20;31.01;43.71
68450;SHT30;67758;39.572;2.652;2023-08-30T14:23:46;31.52;42.63
68450;SHT30;67758;39.572;2.652;2023-08-30T14:26:11;32.21;41.33
68450;SHT30;67758;39.572;2.652;2023-08-30T14:28:40;32.54;40.75
68450;SHT30;67758;39.572;2.652;2023-08-30T14:31:07;33.18;41.05
68450;SHT30;67758;39.572;2.652;2023-08-30T14:33:34;32.60;42.52
68450;SHT30;67758;39.572;2.652;2023-08-30T14:35:59;32.19;43.12
68450;SHT30;67758;39.572;2.652;2023-08-30T14:38:28;32.55;42.79
68450;SHT30;67758;39.572;2.652;2023-08-30T14:41:00;31.62;43.60
68450;SHT30;67758;39.572;2.652;2023-08-30T14:43:27;31.50;44.08
68450;SHT30;67758;39.572;2.652;2023-08-30T14:46:04;32.02;43.03
68450;SHT30;67758;39.572;2.652;2023-08-30T14:48:30;32.63;42.00
68450;SHT30;67758;39.572;2.652;2023-08-30T14:50:57;32.38;42.80
68450;SHT30;67758;39.572;2.652;2023-08-30T14:53:23;30.90;45.64
68450;SHT30;67758;39.572;2.652;2023-08-30T14:55:49;30.50;45.71
68450;SHT30;67758;39.572;2.652;2023-08-30T14:58:14;30.64;45.49
68450;SHT30;67758;39.572;2.652;2023-08-30T15:00:40;30.95;44.98
68450;SHT30;67758;39.572;2.652;2023-08-30T15:03:06;30.83;45.20
68450;SHT30;67758;39.572;2.652;2023-08-30T15:05:31;30.45;45.31
68450;SHT30;67758;39.572;2.652;2023-08-30T15:07:57;30.05;46.32
68450;SHT30;67758;39.572;2.652;2023-08-30T15:10:23;29.86;47.43
68450;SHT30;67758;39.572;2.652;2023-08-30T15:12:49;29.88;47.67
68450;SHT30;67758;39.572;2.652;2023-08-30T15:15:15;29.14;48.83
68450;SHT30;67758;39.572;2.652;2023-08-30T15:17:41;29.71;48.21
68450;SHT30;67758;39.572;2.652;2023-08-30T15:20:07;29.72;47.97
68450;SHT30;67758;39.572;2.652;2023-08-30T15:22:34;29.34;48.36
68450;SHT30;67758;39.572;2.652;2023-08-30T15:24:59;30.27;47.20
68450;SHT30;67758;39.572;2.652;2023-08-30T15:27:27;30.78;45.98
68450;SHT30;67758;39.572;2.652;2023-08-30T15:29:53;29.69;46.97
68450;SHT30;67758;39.572;2.652;2023-08-30T15:32:23;29.81;47.26
68450;SHT30;67758;39.572;2.652;2023-08-30T15:34:52;29.61;48.41
68450;SHT30;67758;39.572;2.652;2023-08-30T15:37:20;30.09;46.75